createdAt,value
2018-07-05T11:31:28.158Z,957.02
2018-07-05T11:32:26.936Z,957.01
2018-07-05T11:33:27.139Z,956.95
2018-07-05T11:34:26.601Z,957.00
2018-07-05T11:34:59.934Z,957.02
2018-07-05T11:35:59.978Z,957.01
2018-07-05T11:36:59.717Z,957.00
2018-07-05T11:37:59.941Z,957.05
2018-07-05T11:39:00.077Z,957.12
2018-07-05T11:39:59.693Z,957.05
2018-07-05T11:40:59.667Z,957.06
2018-07-05T11:41:59.741Z,957.08
2018-07-05T11:42:59.621Z,957.10
2018-07-05T11:43:59.778Z,957.08
2018-07-05T11:44:59.209Z,957.12
2018-07-05T11:45:59.316Z,957.08
2018-07-05T11:46:58.936Z,957.11
2018-07-05T11:47:59.456Z,957.14
2018-07-05T11:48:58.917Z,957.14
2018-07-05T11:49:58.695Z,957.13
2018-07-05T11:50:58.961Z,957.20
2018-07-05T11:51:58.797Z,957.16
2018-07-05T11:52:58.899Z,957.21
2018-07-05T11:53:58.696Z,957.25
2018-07-05T11:54:58.538Z,957.24
2018-07-05T11:55:58.639Z,957.23
2018-07-05T11:56:58.522Z,957.22
2018-07-05T11:57:58.238Z,957.30
2018-07-05T11:58:58.458Z,957.29
2018-07-05T11:59:59.775Z,957.20
2018-07-05T12:00:59.279Z,957.18
2018-07-05T12:01:57.982Z,957.22
2018-07-05T12:02:58.100Z,957.28
2018-07-05T12:03:57.863Z,957.28
2018-07-05T12:04:57.643Z,957.35
2018-07-05T12:05:57.914Z,957.41
2018-07-05T12:06:57.679Z,957.30
2018-07-05T12:07:57.480Z,957.32
2018-07-05T12:08:57.378Z,957.32
2018-07-05T12:09:57.638Z,957.34
2018-07-05T12:10:57.644Z,957.35
2018-07-05T12:11:57.013Z,957.36
2018-07-05T12:12:57.094Z,957.41
2018-07-05T12:13:56.862Z,957.37
2018-07-05T12:14:56.898Z,957.36
2018-07-05T12:15:56.820Z,957.33
2018-07-05T12:16:56.986Z,957.38
2018-07-05T12:17:56.958Z,957.45
2018-07-05T12:18:56.601Z,957.38
2018-07-05T12:19:56.802Z,957.45
2018-07-05T12:20:56.319Z,957.42
2018-07-05T12:21:57.081Z,957.40
2018-07-05T12:22:56.437Z,957.48
2018-07-05T12:23:56.114Z,957.47
2018-07-05T12:24:56.099Z,957.49
2018-07-05T12:25:56.055Z,957.48
2018-07-05T12:26:56.177Z,957.53
2018-07-05T12:27:55.858Z,957.54
2018-07-05T12:28:55.695Z,957.53
2018-07-05T12:29:55.921Z,957.57
2018-07-05T12:30:55.494Z,957.60
2018-07-05T12:31:55.813Z,957.68
2018-07-05T12:32:55.380Z,957.60
2018-07-05T12:33:55.374Z,957.60
2018-07-05T12:34:55.363Z,957.64
2018-07-05T12:35:55.082Z,957.72
2018-07-05T12:36:55.277Z,957.73
2018-07-05T12:37:55.336Z,957.69
2018-07-05T12:38:55.497Z,957.76
2018-07-05T12:39:54.897Z,957.71
2018-07-05T12:40:54.897Z,957.81
2018-07-05T12:41:54.921Z,957.76
2018-07-05T12:42:54.861Z,957.77
2018-07-05T12:43:55.256Z,957.76
2018-07-05T12:44:54.581Z,957.78
2018-07-05T12:45:54.282Z,957.83
2018-07-05T12:46:54.372Z,957.78
2018-07-05T12:47:55.943Z,957.81
2018-07-05T12:48:54.099Z,957.79
2018-07-05T12:49:54.068Z,957.78
2018-07-05T12:50:54.177Z,957.78
2018-07-05T12:51:54.179Z,957.83
2018-07-05T12:52:54.003Z,957.74
2018-07-05T12:53:53.178Z,957.76
2018-07-05T12:54:53.867Z,957.77
2018-07-05T12:55:54.017Z,957.72
2018-07-05T12:56:53.515Z,957.69
2018-07-05T12:57:53.357Z,957.73
2018-07-05T12:58:53.562Z,957.74
2018-07-05T12:59:53.379Z,957.78
2018-07-05T13:00:53.474Z,957.82
2018-07-05T13:01:53.438Z,957.84
2018-07-05T13:02:53.320Z,957.87
2018-07-05T13:03:53.291Z,957.87
2018-07-05T13:04:53.061Z,957.87
2018-07-05T13:05:52.864Z,957.92
2018-07-05T13:06:53.022Z,957.93
2018-07-05T13:07:52.615Z,957.98
2018-07-05T13:08:52.721Z,957.98
2018-07-05T13:09:52.476Z,957.96
2018-07-05T13:10:52.378Z,957.99
2018-07-05T13:11:52.253Z,957.94
2018-07-05T13:12:52.627Z,957.91
2018-07-05T13:13:52.260Z,957.95
2018-07-05T13:14:52.211Z,957.95
2018-07-05T13:15:51.921Z,958.00
2018-07-05T13:16:52.125Z,957.94
2018-07-05T13:17:51.819Z,957.98
2018-07-05T13:18:51.844Z,957.99
2018-07-05T13:19:51.613Z,958.02
2018-07-05T13:20:51.558Z,958.04
2018-07-05T13:21:51.555Z,958.03
2018-07-05T13:22:51.845Z,958.12
2018-07-05T13:23:51.961Z,958.09
2018-07-05T13:24:51.454Z,958.16
2018-07-05T13:25:51.594Z,958.09
2018-07-05T13:26:51.034Z,958.12
2018-07-05T13:27:51.141Z,958.16
2018-07-05T13:28:51.226Z,958.03
2018-07-05T13:29:51.385Z,958.08
2018-07-05T13:30:51.681Z,958.07
2018-07-05T13:31:51.638Z,958.10
2018-07-05T13:32:51.759Z,958.10
2018-07-05T13:33:50.820Z,958.04
2018-07-05T13:34:50.739Z,958.03
2018-07-05T13:35:50.939Z,958.04
2018-07-05T13:38:11.219Z,958.03
